Square Butte, Montana
Current Conditions -  °F | °C
As of 2:56 AM on Sunday 23 Nov 2014 (Local Time) from KGFA Reporting Station
Broken Clouds Broken Clouds  
Wind Chill: 25°   Ceiling: 10000
Heat Index: 33°   Visibility: 10mi
Dew Point: 21°   Wind: 10mph
Humidity: 60%   Direction: 250°WSW
Pressure: 29.79"   Gusts: NA
Location:  47.5886°N, 110.344°W
Report Text: KGFA 230956Z AUTO 25009KT 10SM FEW080 BKN100 01/M06 A2979 RMK AO2 SLP113 T00061063
Loading
Personal Weather Stations






























Interactive Weather Map New forecast layout! Learn more

10-Day Weather Forecast

Advertisements
Track Severe Weather on mobile